Time;durP1;ratioP1;P1;durP2;ratioP2;P2;SDS_P1;SDS_P2;PMS_P1;PMS_P2;Temp;Humidity;BMP_temperature;BMP_pressure;BME280_temperature;BME280_humidity;BME280_pressure;Samples;Min_cycle;Max_cycle;Signal;HPM_P1;HPM_P2
2021/06/04 00:00:17;;;;;;;60.78;48.20;;;;;;;19.02;100.00;101539.38;4994192;28;20049;-87
2021/06/04 00:02:43;;;;;;;64.03;49.50;;;;;;;19.02;100.00;101531.22;4983708;28;20112;-88
2021/06/04 00:05:10;;;;;;;62.13;49.63;;;;;;;19.00;100.00;101527.00;5002554;28;20085;-89
2021/06/04 00:07:38;;;;;;;60.05;46.22;;;;;;;18.97;100.00;101533.69;4983500;28;20261;-88
2021/06/04 00:10:14;;;;;;;58.70;46.00;;;;;;;18.94;100.00;101539.53;4980808;28;20407;-88
2021/06/04 00:12:40;;;;;;;58.40;47.05;;;;;;;18.99;100.00;101530.75;4986430;28;20058;-87
2021/06/04 00:15:13;;;;;;;62.63;49.10;;;;;;;19.00;100.00;101537.88;5002621;28;20065;-87
2021/06/04 00:17:38;;;;;;;62.03;49.95;;;;;;;18.99;100.00;101528.91;4970016;28;20042;-89
2021/06/04 00:20:09;;;;;;;59.53;47.05;;;;;;;18.98;100.00;101518.22;4986889;28;20407;-87
2021/06/04 00:22:34;;;;;;;61.17;48.83;;;;;;;18.96;100.00;101515.72;5003687;28;20042;-87
2021/06/04 00:25:00;;;;;;;61.28;47.00;;;;;;;18.93;100.00;101521.53;4996600;28;20040;-89
2021/06/04 00:27:25;;;;;;;59.47;48.00;;;;;;;18.91;100.00;101526.34;4985758;28;20065;-88
2021/06/04 00:29:51;;;;;;;58.85;46.47;;;;;;;18.87;100.00;101522.31;4997261;28;20044;-88
2021/06/04 00:32:19;;;;;;;61.03;48.95;;;;;;;18.83;100.00;101521.91;4974959;28;20050;-85
2021/06/04 00:34:44;;;;;;;67.40;52.30;;;;;;;18.79;100.00;101514.34;4987151;28;20331;-88
2021/06/04 00:37:10;;;;;;;67.65;50.25;;;;;;;18.75;100.00;101513.91;4998758;28;20053;-88
2021/06/04 00:39:38;;;;;;;69.45;51.63;;;;;;;18.71;100.00;101510.72;4967161;28;20276;-87
2021/06/04 00:42:16;;;;;;;64.68;50.17;;;;;;;18.67;100.00;101517.63;4973225;28;20494;-87
2021/06/04 00:44:43;;;;;;;68.72;51.35;;;;;;;18.66;100.00;101515.91;5003688;28;20485;-88
2021/06/04 00:47:08;;;;;;;67.93;49.92;;;;;;;18.64;100.00;101518.00;5011775;28;20077;-85
2021/06/04 00:49:35;;;;;;;66.18;50.92;;;;;;;18.60;100.00;101522.16;4978667;28;20034;-87
2021/06/04 00:52:29;;;;;;;73.53;53.83;;;;;;;18.62;100.00;101524.69;4989449;28;20445;-87
2021/06/04 00:54:57;;;;;;;73.00;53.22;;;;;;;18.58;100.00;101526.94;4950909;28;20042;-87
2021/06/04 00:57:23;;;;;;;68.35;51.97;;;;;;;18.58;100.00;101532.38;4981186;28;20285;-87
2021/06/04 00:59:49;;;;;;;69.10;51.85;;;;;;;18.56;100.00;101530.88;4964461;28;20113;-87
2021/06/04 01:02:18;;;;;;;73.05;51.70;;;;;;;18.57;100.00;101546.19;4949194;28;20373;-87
2021/06/04 01:04:45;;;;;;;73.57;54.08;;;;;;;18.58;100.00;101545.97;4968049;28;20145;-89
2021/06/04 01:07:16;;;;;;;72.85;55.03;;;;;;;18.56;100.00;101542.63;5000145;28;20034;-89
2021/06/04 01:10:16;;;;;;;74.88;54.75;;;;;;;18.52;100.00;101538.63;4988019;28;20045;-87
2021/06/04 01:12:55;;;;;;;71.57;52.58;;;;;;;18.52;100.00;101535.91;4983863;28;21812;-87
2021/06/04 01:15:27;;;;;;;70.50;53.35;;;;;;;18.50;100.00;101540.72;4987473;28;20140;-89
2021/06/04 01:18:08;;;;;;;73.25;54.90;;;;;;;18.50;100.00;101538.00;5002955;28;20046;-88
2021/06/04 01:20:44;;;;;;;71.60;53.70;;;;;;;18.48;100.00;101540.91;4991274;28;20516;-90
2021/06/04 01:23:25;;;;;;;69.10;51.72;;;;;;;18.42;100.00;101536.25;4988498;28;20046;-87
2021/06/04 01:25:57;;;;;;;74.80;54.47;;;;;;;18.44;100.00;101541.47;5005374;28;20437;-88
2021/06/04 01:28:25;;;;;;;72.63;54.08;;;;;;;18.40;100.00;101551.06;4987360;28;20376;-86
2021/06/04 01:31:01;;;;;;;81.60;58.77;;;;;;;18.39;100.00;101542.09;4970821;28;20486;-87
2021/06/04 01:33:50;;;;;;;73.65;54.38;;;;;;;18.39;100.00;101557.56;4986253;28;20050;-88
2021/06/04 01:36:20;;;;;;;79.75;58.15;;;;;;;18.37;100.00;101554.19;4989233;28;20045;-89
2021/06/04 01:38:47;;;;;;;82.82;58.90;;;;;;;18.39;100.00;101552.13;5004521;28;20049;-88
2021/06/04 01:41:15;;;;;;;78.30;56.97;;;;;;;18.39;100.00;101557.56;5001239;28;20069;-89
2021/06/04 01:43:45;;;;;;;78.70;58.00;;;;;;;18.40;100.00;101560.06;4987333;28;20041;-87
2021/06/04 01:46:21;;;;;;;78.07;58.22;;;;;;;18.40;100.00;101551.91;4988524;28;20467;-89
2021/06/04 01:48:50;;;;;;;78.57;58.00;;;;;;;18.38;100.00;101551.25;5001526;28;20077;-91
2021/06/04 01:51:15;;;;;;;83.25;61.53;;;;;;;18.35;100.00;101542.66;4982230;28;20069;-87
2021/06/04 01:53:48;;;;;;;83.80;58.67;;;;;;;18.36;100.00;101536.22;4995587;28;20201;-87
2021/06/04 01:56:18;;;;;;;85.30;61.35;;;;;;;18.31;100.00;101544.13;4995362;28;20033;-87
2021/06/04 01:58:49;;;;;;;82.28;58.97;;;;;;;18.26;100.00;101547.41;4968114;28;20463;-87
2021/06/04 02:01:24;;;;;;;89.13;63.50;;;;;;;18.26;100.00;101548.25;4988152;28;20041;-87
2021/06/04 02:03:49;;;;;;;89.22;62.28;;;;;;;18.27;100.00;101546.41;4998714;28;20156;-90
2021/06/04 02:06:15;;;;;;;85.20;61.60;;;;;;;18.26;100.00;101550.97;4987019;28;20045;-87
2021/06/04 02:08:47;;;;;;;87.63;62.80;;;;;;;18.22;100.00;101555.13;4967819;28;20043;-87
2021/06/04 02:11:15;;;;;;;88.63;63.17;;;;;;;18.22;100.00;101546.13;4978359;28;20034;-88
2021/06/04 02:13:46;;;;;;;94.20;62.22;;;;;;;18.15;100.00;101550.66;4984010;28;20054;-87
2021/06/04 02:16:36;;;;;;;90.10;63.03;;;;;;;18.21;100.00;101544.44;4989695;28;20185;-88
2021/06/04 02:19:17;;;;;;;90.70;63.10;;;;;;;18.18;100.00;101540.25;4972962;28;20116;-88
2021/06/04 02:21:54;;;;;;;90.85;63.42;;;;;;;18.21;100.00;101544.44;5002445;28;20058;-86
2021/06/04 02:24:34;;;;;;;96.13;66.47;;;;;;;18.16;100.00;101550.47;4993033;28;20034;-87
2021/06/04 02:27:09;;;;;;;93.60;64.13;;;;;;;18.16;100.00;101553.19;4985899;28;20046;-88
2021/06/04 02:30:14;;;;;;;99.70;67.22;;;;;;;18.14;100.00;101554.41;4997026;28;20034;-87
2021/06/04 02:32:47;;;;;;;96.75;66.63;;;;;;;18.12;100.00;101557.31;4976116;28;20073;-89
2021/06/04 02:35:15;;;;;;;94.60;66.57;;;;;;;18.08;100.00;101560.63;4997297;28;20034;-88
2021/06/04 02:37:46;;;;;;;97.20;65.55;;;;;;;18.04;100.00;101560.19;5002285;28;20164;-87
2021/06/04 02:40:17;;;;;;;100.90;67.20;;;;;;;18.04;100.00;101565.63;4993577;28;20330;-86
2021/06/04 02:42:46;;;;;;;100.10;66.95;;;;;;;18.04;100.00;101565.63;4982860;28;20121;-89
2021/06/04 02:45:23;;;;;;;103.72;68.50;;;;;;;18.01;100.00;101557.84;4993606;28;20062;-85
2021/06/04 02:47:56;;;;;;;98.00;68.63;;;;;;;17.99;100.00;101562.66;4999111;28;20054;-88
2021/06/04 02:50:38;;;;;;;103.20;69.95;;;;;;;17.93;100.00;101563.44;4990867;28;20038;-86
2021/06/04 02:53:16;;;;;;;105.75;68.38;;;;;;;17.93;100.00;101553.41;4984175;28;20074;-87
2021/06/04 02:56:05;;;;;;;105.55;69.72;;;;;;;17.91;100.00;101558.19;4998064;28;20091;-88
2021/06/04 02:58:31;;;;;;;100.85;68.22;;;;;;;17.86;100.00;101560.63;4995360;28;20076;-89
2021/06/04 03:00:57;;;;;;;106.05;69.15;;;;;;;17.86;100.00;101565.22;5003910;28;20364;-87
2021/06/04 03:03:22;;;;;;;98.53;67.10;;;;;;;17.91;100.00;101562.78;4979095;28;20061;-86
2021/06/04 03:05:48;;;;;;;107.75;70.78;;;;;;;17.90;100.00;101555.66;4997305;28;20422;-87
2021/06/04 03:08:15;;;;;;;97.63;69.05;;;;;;;17.84;100.00;101561.84;4995622;28;20137;-88
2021/06/04 03:10:47;;;;;;;102.78;71.30;;;;;;;17.87;100.00;101558.78;4972108;28;20399;-87
2021/06/04 03:13:17;;;;;;;106.90;71.80;;;;;;;17.88;100.00;101558.56;4989702;28;20042;-90
2021/06/04 03:15:49;;;;;;;102.85;70.93;;;;;;;17.87;100.00;101566.91;4997203;28;20604;-87
2021/06/04 03:18:18;;;;;;;108.93;73.60;;;;;;;17.83;100.00;101571.03;4984062;28;20137;-90
2021/06/04 03:20:46;;;;;;;108.57;72.40;;;;;;;17.79;100.00;101557.03;4994975;28;20070;-88
2021/06/04 03:23:16;;;;;;;112.63;72.10;;;;;;;17.76;100.00;101566.34;4999696;28;20394;-87
2021/06/04 03:25:48;;;;;;;102.55;69.25;;;;;;;17.76;100.00;101569.06;4973723;28;20046;-89
2021/06/04 03:28:17;;;;;;;102.13;68.47;;;;;;;17.72;100.00;101570.50;4983681;28;20100;-89
2021/06/04 03:30:43;;;;;;;;;;;;;;;17.74;100.00;101575.72;4991317;28;20126;-88
2021/06/04 03:33:12;;;;;;;109.93;73.00;;;;;;;17.61;100.00;101571.00;4998155;28;19936;-86
2021/06/04 03:35:38;;;;;;;100.65;71.75;;;;;;;17.58;100.00;101571.38;4955818;28;20080;-88
2021/06/04 03:38:05;;;;;;;100.00;67.63;;;;;;;17.54;100.00;101573.63;4980847;28;20046;-90
2021/06/04 03:40:32;;;;;;;103.60;69.35;;;;;;;17.44;100.00;101578.53;5004546;28;20422;-87
2021/06/04 03:43:02;;;;;;;97.05;66.88;;;;;;;17.47;100.00;101583.56;4984880;28;20042;-89
2021/06/04 03:45:32;;;;;;;106.25;71.30;;;;;;;17.48;100.00;101582.53;4995599;28;20160;-88
2021/06/04 03:47:58;;;;;;;101.85;68.32;;;;;;;17.47;100.00;101586.28;5000787;28;20045;-87
2021/06/04 03:50:23;;;;;;;102.40;66.82;;;;;;;17.41;100.00;101589.75;4995888;28;20391;-87
2021/06/04 03:52:49;;;;;;;96.15;67.22;;;;;;;17.42;100.00;101587.88;4984089;28;20100;-89
2021/06/04 03:55:17;;;;;;;98.93;67.35;;;;;;;17.40;100.00;101588.06;4961653;28;20484;-88
2021/06/04 03:57:42;;;;;;;97.32;66.35;;;;;;;17.38;100.00;101590.16;4985859;28;20207;-89
2021/06/04 04:00:27;;;;;;;110.25;71.53;;;;;;;17.41;100.00;101586.22;4994955;28;20054;-88
2021/06/04 04:02:54;;;;;;;96.93;65.50;;;;;;;17.37;100.00;101591.97;4998673;28;20117;-88
2021/06/04 04:05:20;;;;;;;94.15;65.35;;;;;;;17.29;100.00;101597.53;4982913;28;20038;-88
2021/06/04 04:07:46;;;;;;;96.50;64.75;;;;;;;17.25;100.00;101598.09;4986896;28;20259;-89
2021/06/04 04:10:13;;;;;;;99.90;67.88;;;;;;;17.30;100.00;101610.06;4998887;28;20045;-88
2021/06/04 04:12:40;;;;;;;95.97;67.00;;;;;;;17.29;100.00;101604.81;4996995;28;20038;-85
2021/06/04 04:15:09;;;;;;;106.95;70.32;;;;;;;17.27;100.00;101613.16;4997154;28;20372;-87
2021/06/04 04:17:34;;;;;;;104.45;69.65;;;;;;;17.31;100.00;101608.19;4967393;28;20125;-89
2021/06/04 04:20:00;;;;;;;103.47;69.18;;;;;;;17.36;100.00;101620.16;4996631;28;20587;-89
2021/06/04 04:22:27;;;;;;;105.93;70.10;;;;;;;17.40;100.00;101620.63;4967311;28;20054;-88
2021/06/04 04:24:52;;;;;;;105.95;69.95;;;;;;;17.43;100.00;101616.69;4994027;28;20046;-90
2021/06/04 04:27:18;;;;;;;104.90;69.15;;;;;;;17.48;100.00;101620.50;5004514;28;20487;-87
2021/06/04 04:29:43;;;;;;;99.15;67.60;;;;;;;17.51;100.00;101619.28;4973768;28;20053;-87
2021/06/04 04:32:15;;;;;;;102.80;69.45;;;;;;;17.53;100.00;101620.78;4983880;28;20038;-87
2021/06/04 04:34:43;;;;;;;109.30;72.05;;;;;;;17.55;100.00;101615.16;4995002;28;20049;-87
2021/06/04 04:37:08;;;;;;;112.65;70.93;;;;;;;17.59;100.00;101619.19;4981132;28;20061;-90
2021/06/04 04:39:38;;;;;;;110.80;75.82;;;;;;;17.63;100.00;101614.22;4976025;28;20527;-89
2021/06/04 04:42:04;;;;;;;;;;;;;;;17.65;100.00;101613.00;4982410;28;20097;-88
2021/06/04 04:44:34;;;;;;;110.97;75.63;;;;;;;17.63;100.00;101616.94;4985646;28;20020;-87
2021/06/04 04:47:02;;;;;;;109.68;74.57;;;;;;;17.66;100.00;101611.94;4992908;28;20125;-90
2021/06/04 04:49:28;;;;;;;108.43;73.20;;;;;;;17.70;100.00;101610.56;4967746;28;20091;-87
2021/06/04 04:51:53;;;;;;;110.07;73.25;;;;;;;17.79;100.00;101611.31;4965798;28;20046;-86
2021/06/04 04:54:19;;;;;;;103.18;72.93;;;;;;;17.85;100.00;101607.00;4970346;28;20034;-85
2021/06/04 04:56:47;;;;;;;103.65;69.00;;;;;;;17.91;100.00;101603.50;5003262;28;20042;-87
2021/06/04 04:59:12;;;;;;;100.00;67.65;;;;;;;17.95;100.00;101605.66;4962488;28;20068;-86
2021/06/04 05:01:40;;;;;;;103.00;68.28;;;;;;;18.01;100.00;101610.31;5008733;28;20061;-88
2021/06/04 05:04:06;;;;;;;91.82;63.67;;;;;;;18.07;100.00;101607.81;4971713;28;20517;-86
2021/06/04 05:06:31;;;;;;;91.63;63.15;;;;;;;18.14;100.00;101604.16;4997079;28;20545;-86
2021/06/04 05:08:56;;;;;;;84.95;59.10;;;;;;;18.17;100.00;101609.19;4986600;28;20050;-88
2021/06/04 05:11:22;;;;;;;85.05;58.20;;;;;;;18.22;100.00;101619.47;4987711;28;20072;-89
2021/06/04 05:13:47;;;;;;;71.97;51.80;;;;;;;18.23;100.00;101623.88;4968708;28;20038;-89
2021/06/04 05:16:13;;;;;;;68.85;49.97;;;;;;;18.29;100.00;101614.09;4988125;28;20044;-87
2021/06/04 05:18:38;;;;;;;70.88;50.30;;;;;;;18.38;100.00;101618.34;5005157;28;20038;-87
2021/06/04 05:21:07;;;;;;;69.85;49.15;;;;;;;18.45;100.00;101621.97;5003646;28;20049;-88
2021/06/04 05:23:33;;;;;;;65.28;48.50;;;;;;;18.51;100.00;101623.06;5001953;28;20692;-88
2021/06/04 05:25:59;;;;;;;60.40;46.58;;;;;;;18.48;98.50;101625.13;4980560;28;20041;-87
2021/06/04 05:28:26;;;;;;;67.13;47.03;;;;;;;18.51;99.17;101620.34;4995465;28;20060;-87
2021/06/04 05:30:55;;;;;;;64.30;48.58;;;;;;;18.54;99.05;101618.09;4968823;28;20063;-87
2021/06/04 05:33:25;;;;;;;62.45;46.47;;;;;;;18.51;98.56;101626.63;5001116;28;20038;-89
2021/06/04 05:35:52;;;;;;;64.35;47.70;;;;;;;18.54;99.08;101626.22;5003019;28;20041;-88
2021/06/04 05:38:18;;;;;;;65.60;47.80;;;;;;;18.55;99.42;101627.06;4986396;28;20030;-87
2021/06/04 05:40:47;;;;;;;65.15;46.97;;;;;;;18.59;98.49;101623.78;4992802;28;20045;-88
2021/06/04 05:43:15;;;;;;;64.30;47.13;;;;;;;18.61;99.17;101621.69;4987798;28;20065;-86
2021/06/04 05:45:43;;;;;;;66.43;48.07;;;;;;;18.62;100.00;101622.53;4999670;28;20136;-89
2021/06/04 05:48:10;;;;;;;69.00;48.80;;;;;;;18.63;99.57;101618.78;4978907;28;20046;-86
2021/06/04 05:50:39;;;;;;;63.47;47.45;;;;;;;18.61;98.72;101620.84;4987311;28;20074;-90
2021/06/04 05:53:10;;;;;;;61.33;46.83;;;;;;;18.60;98.82;101630.03;4996158;28;20061;-86
2021/06/04 05:55:38;;;;;;;64.15;46.53;;;;;;;18.62;98.37;101630.69;4988472;28;20049;-88
2021/06/04 05:58:09;;;;;;;58.22;43.65;;;;;;;18.63;97.23;101630.47;5000535;28;20035;-84
2021/06/04 06:00:42;;;;;;;57.90;43.70;;;;;;;18.64;97.16;101642.19;4985757;28;20045;-86
2021/06/04 06:03:09;;;;;;;62.40;46.33;;;;;;;18.75;98.13;101635.41;4997649;28;20041;-88
2021/06/04 06:05:34;;;;;;;58.15;44.30;;;;;;;18.71;97.67;101635.78;4996028;28;20037;-87
2021/06/04 06:08:00;;;;;;;57.40;44.05;;;;;;;18.76;96.18;101634.38;4987786;28;20102;-86
2021/06/04 06:10:25;;;;;;;58.58;44.35;;;;;;;18.81;96.63;101638.16;4986658;28;20037;-84
2021/06/04 06:12:52;;;;;;;55.17;42.05;;;;;;;18.88;95.64;101638.25;4983239;28;20045;-87
2021/06/04 06:15:20;;;;;;;54.50;43.50;;;;;;;18.94;96.03;101632.00;5006061;28;20557;-86
2021/06/04 06:17:45;;;;;;;57.65;44.38;;;;;;;18.97;96.92;101634.31;5001803;28;20050;-86
2021/06/04 06:20:14;;;;;;;58.58;45.15;;;;;;;19.04;96.78;101637.91;4972210;28;20045;-88
2021/06/04 06:22:41;;;;;;;56.38;42.67;;;;;;;19.06;95.73;101635.00;4995898;28;20035;-88
2021/06/04 06:25:13;;;;;;;57.53;43.65;;;;;;;19.12;96.36;101643.19;4987445;28;20048;-86
2021/06/04 06:27:39;;;;;;;57.33;44.00;;;;;;;19.21;95.67;101638.44;4983507;28;20387;-88
2021/06/04 06:30:06;;;;;;;53.20;42.05;;;;;;;19.20;94.58;101641.38;4984782;28;20046;-86
2021/06/04 06:32:33;;;;;;;56.83;43.40;;;;;;;19.21;94.91;101645.75;4986347;28;20183;-87
2021/06/04 06:35:01;;;;;;;55.50;41.28;;;;;;;19.25;94.87;101644.31;4957815;28;20047;-88
2021/06/04 06:37:26;;;;;;;55.40;43.55;;;;;;;19.27;93.94;101650.38;4933100;29;20458;-88
2021/06/04 06:39:53;;;;;;;59.13;43.63;;;;;;;19.30;94.16;101647.25;4929236;28;20070;-83
2021/06/04 06:42:18;;;;;;;52.13;38.58;;;;;;;19.32;93.11;101650.63;4947818;28;20054;-87
2021/06/04 06:44:51;;;;;;;56.95;41.65;;;;;;;19.36;93.85;101654.63;4942242;28;20138;-90
2021/06/04 06:47:16;;;;;;;55.35;40.85;;;;;;;19.42;94.54;101653.84;4916216;28;20377;-87
2021/06/04 06:49:43;;;;;;;52.60;41.85;;;;;;;19.55;93.19;101653.88;4911942;28;20731;-87
2021/06/04 06:52:09;;;;;;;56.72;42.65;;;;;;;19.61;94.94;101666.69;4907003;28;20051;-87
2021/06/04 06:54:36;;;;;;;52.60;42.63;;;;;;;19.74;95.46;101663.22;4929203;29;20040;-89
2021/06/04 06:57:07;;;;;;;56.33;41.25;;;;;;;19.81;92.74;101671.41;4941916;28;20424;-88
2021/06/04 06:59:42;;;;;;;52.85;40.28;;;;;;;19.68;92.84;101669.47;4938877;28;20046;-90
2021/06/04 07:02:11;;;;;;;45.47;37.47;;;;;;;19.77;92.79;101676.44;4990488;28;20058;-88
2021/06/04 07:04:44;;;;;;;52.60;36.67;;;;;;;19.80;91.65;101676.03;4975395;28;20045;-89
2021/06/04 07:07:21;;;;;;;50.10;37.40;;;;;;;19.89;91.33;101673.13;4961493;28;20055;-87
2021/06/04 07:09:48;;;;;;;46.88;34.72;;;;;;;19.79;89.60;101676.22;4983124;28;20043;-87
2021/06/04 07:12:16;;;;;;;45.45;34.75;;;;;;;19.89;90.82;101667.66;4992433;28;20038;-89
2021/06/04 07:14:41;;;;;;;50.03;36.88;;;;;;;19.99;91.30;101662.66;5009752;28;20128;-88
2021/06/04 07:17:10;;;;;;;44.85;35.90;;;;;;;20.03;91.12;101663.94;5003771;28;20126;-87
2021/06/04 07:19:35;;;;;;;49.85;38.90;;;;;;;20.15;93.06;101667.72;4992668;28;20048;-84
2021/06/04 07:22:06;;;;;;;45.90;36.08;;;;;;;20.18;89.02;101672.78;4986233;28;20486;-87
2021/06/04 07:24:31;;;;;;;45.90;35.65;;;;;;;20.26;89.50;101663.56;4989810;28;20049;-86
2021/06/04 07:26:58;;;;;;;45.92;35.75;;;;;;;20.36;89.42;101680.34;4989444;28;20041;-89
2021/06/04 07:29:25;;;;;;;50.25;37.33;;;;;;;20.49;89.31;101674.91;4987929;28;20042;-91
2021/06/04 07:31:51;;;;;;;43.47;35.00;;;;;;;20.44;87.01;101666.50;4985532;28;20125;-87
2021/06/04 07:34:17;;;;;;;47.33;37.25;;;;;;;20.53;88.18;101672.63;4995570;28;20577;-86
2021/06/04 07:36:48;;;;;;;49.88;38.22;;;;;;;20.55;88.40;101666.97;5000351;28;20046;-87
2021/06/04 07:39:19;;;;;;;48.20;36.55;;;;;;;20.54;89.75;101668.00;4986355;28;20045;-87
2021/06/04 07:41:45;;;;;;;46.88;37.15;;;;;;;20.31;88.36;101662.94;4995128;28;20054;-89
2021/06/04 07:44:13;;;;;;;45.92;37.05;;;;;;;20.45;88.95;101668.19;4999541;28;20033;-87
2021/06/04 07:46:39;;;;;;;49.00;37.08;;;;;;;20.63;89.17;101664.88;5002730;28;20213;-87
2021/06/04 07:49:05;;;;;;;44.53;35.38;;;;;;;20.74;88.99;101671.56;4996345;28;20045;-86
2021/06/04 07:51:39;;;;;;;46.35;35.30;;;;;;;20.80;87.22;101665.31;4999642;28;20107;-88
2021/06/04 07:54:07;;;;;;;45.58;35.22;;;;;;;20.87;87.65;101668.03;5000334;28;20091;-87
2021/06/04 07:56:33;;;;;;;44.45;35.97;;;;;;;20.93;86.85;101659.81;4977799;28;20049;-86
2021/06/04 07:59:00;;;;;;;46.70;36.13;;;;;;;20.94;86.97;101661.50;4984277;28;20053;-89
2021/06/04 08:01:28;;;;;;;45.25;35.58;;;;;;;20.88;86.62;101665.06;4978667;28;20061;-91
2021/06/04 08:03:54;;;;;;;44.05;35.85;;;;;;;20.91;88.09;101667.38;4970743;28;20507;-89
2021/06/04 08:06:21;;;;;;;44.38;35.03;;;;;;;21.04;87.06;101671.16;4974070;28;20197;-87
2021/06/04 08:08:52;;;;;;;45.55;35.78;;;;;;;21.15;86.25;101668.59;5004881;28;20145;-88
2021/06/04 08:11:22;;;;;;;46.05;34.40;;;;;;;21.21;85.52;101677.84;4994628;28;20046;-88
2021/06/04 08:13:47;;;;;;;45.75;35.40;;;;;;;21.19;85.37;101680.75;5001867;28;20112;-87
2021/06/04 08:16:16;;;;;;;46.72;39.45;;;;;;;21.25;87.31;101679.06;4988873;28;20046;-89
2021/06/04 08:18:42;;;;;;;47.17;37.83;;;;;;;21.34;85.93;101669.59;4992807;28;20047;-89
2021/06/04 08:21:26;;;;;;;47.60;37.78;;;;;;;21.35;84.51;101674.03;4987628;28;20038;-88
2021/06/04 08:23:52;;;;;;;48.00;38.25;;;;;;;21.46;86.38;101675.25;5005913;28;20069;-89
2021/06/04 08:26:23;;;;;;;46.25;37.80;;;;;;;21.45;85.13;101667.28;4980878;28;20042;-87
2021/06/04 08:28:50;;;;;;;47.58;38.55;;;;;;;21.39;85.28;101661.63;4997111;28;20050;-86
2021/06/04 08:31:18;;;;;;;45.80;36.78;;;;;;;21.47;84.50;101657.84;4978637;28;20470;-91
2021/06/04 08:33:45;;;;;;;46.28;38.58;;;;;;;21.61;86.49;101655.91;5005335;28;20072;-88
2021/06/04 08:36:15;;;;;;;46.97;39.15;;;;;;;21.62;84.67;101665.75;5008697;28;20547;-87
2021/06/04 08:38:41;;;;;;;48.38;38.40;;;;;;;21.60;86.17;101665.97;4977596;28;20046;-90
2021/06/04 08:41:20;;;;;;;47.78;37.65;;;;;;;21.72;85.04;101662.56;5011722;28;20048;-87
2021/06/04 08:44:20;;;;;;;46.97;36.92;;;;;;;21.79;84.50;101669.66;4999818;28;20069;-89
2021/06/04 08:47:00;;;;;;;47.35;37.72;;;;;;;21.74;85.32;101661.28;5007580;28;20502;-88
2021/06/04 08:49:31;;;;;;;48.42;36.97;;;;;;;21.83;85.35;101664.59;5015456;28;20061;-88
2021/06/04 08:52:23;;;;;;;49.45;39.70;;;;;;;21.84;83.95;101672.59;4991617;28;20049;-88
2021/06/04 08:55:04;;;;;;;45.95;38.33;;;;;;;21.99;84.78;101666.00;5004548;28;20053;-87
2021/06/04 08:57:59;;;;;;;46.40;36.20;;;;;;;21.91;83.81;101669.81;4991785;28;20048;-88
2021/06/04 09:00:28;;;;;;;50.63;38.95;;;;;;;21.84;83.92;101667.13;4974676;28;20169;-87
2021/06/04 09:02:56;;;;;;;;;;;;;;;21.90;83.92;101665.41;4995908;28;20534;-88
2021/06/04 09:05:37;;;;;;;50.65;40.75;;;;;;;21.90;85.24;101670.88;5006219;28;19920;-90
2021/06/04 09:08:03;;;;;;;50.22;38.90;;;;;;;21.98;84.66;101662.44;4983360;28;20582;-88
2021/06/04 09:10:48;;;;;;;130.75;49.33;;;;;;;22.07;84.75;101666.59;4990662;28;20047;-87
2021/06/04 09:13:21;;;;;;;51.40;38.60;;;;;;;21.97;84.12;101659.91;5006140;28;20076;-87
2021/06/04 09:15:47;;;;;;;49.22;39.22;;;;;;;22.15;84.10;101667.38;4995104;28;20033;-90
2021/06/04 09:18:25;;;;;;;52.08;41.08;;;;;;;22.22;83.20;101660.00;4975438;28;20065;-87
2021/06/04 09:21:00;;;;;;;50.67;37.45;;;;;;;22.18;82.07;101669.69;4988225;28;21011;-86
2021/06/04 09:23:38;;;;;;;46.63;37.75;;;;;;;22.33;81.28;101674.84;4974748;28;20057;-88
2021/06/04 09:26:07;;;;;;;49.40;37.88;;;;;;;22.35;80.45;101672.72;5013919;28;20057;-88
2021/06/04 09:28:36;;;;;;;49.22;38.42;;;;;;;22.33;80.39;101669.38;5000485;28;20034;-88
2021/06/04 09:31:19;;;;;;;48.55;37.78;;;;;;;22.56;80.79;101668.78;4960073;28;20039;-90
2021/06/04 09:33:51;;;;;;;47.35;38.10;;;;;;;22.51;79.88;101670.31;5003564;28;20047;-87
2021/06/04 09:36:25;;;;;;;50.92;38.67;;;;;;;22.44;78.79;101664.06;5002917;28;20050;-87
2021/06/04 09:38:55;;;;;;;50.05;38.67;;;;;;;22.54;79.35;101671.75;4990209;28;20110;-89
2021/06/04 09:41:34;;;;;;;46.03;35.15;;;;;;;22.67;80.44;101676.28;4987756;28;20517;-87
2021/06/04 09:44:18;;;;;;;44.92;34.38;;;;;;;22.73;76.75;101678.13;5004603;28;20038;-87
2021/06/04 09:46:58;;;;;;;242.77;62.35;;;;;;;22.80;75.69;101676.16;4999633;28;20048;-86
2021/06/04 09:49:45;;;;;;;43.17;33.85;;;;;;;22.82;75.77;101673.22;4988186;28;20041;-86
2021/06/04 09:52:36;;;;;;;46.63;34.05;;;;;;;22.88;76.40;101669.59;4965389;28;20050;-88
2021/06/04 09:55:07;;;;;;;37.70;30.83;;;;;;;22.93;76.74;101669.72;4993829;28;20050;-88
2021/06/04 09:57:33;;;;;;;40.80;33.22;;;;;;;23.11;75.13;101668.97;4983834;28;20042;-87
2021/06/04 10:00:24;;;;;;;43.92;32.50;;;;;;;23.03;74.11;101670.09;4983745;28;20139;-89
2021/06/04 10:03:05;;;;;;;52.25;31.13;;;;;;;23.10;73.76;101673.59;4996160;28;20065;-86
2021/06/04 10:05:32;;;;;;;34.08;27.35;;;;;;;23.30;72.40;101672.53;4995325;28;20300;-88
2021/06/04 10:08:00;;;;;;;40.08;29.20;;;;;;;23.48;73.19;101671.69;4983674;28;20128;-86
2021/06/04 10:10:31;;;;;;;39.65;29.02;;;;;;;23.42;70.78;101676.22;4991876;28;20137;-87
2021/06/04 10:13:37;;;;;;;37.95;27.75;;;;;;;23.42;68.72;101668.81;4993954;28;20069;-87
2021/06/04 10:16:09;;;;;;;29.95;22.73;;;;;;;23.43;68.71;101669.66;4990862;28;20038;-88
2021/06/04 10:18:48;;;;;;;33.92;26.92;;;;;;;23.71;67.73;101668.28;4972407;28;20096;-89
2021/06/04 10:21:16;;;;;;;41.20;28.80;;;;;;;23.55;69.15;101651.38;4974405;28;20050;-89
2021/06/04 10:23:48;;;;;;;29.07;23.10;;;;;;;23.63;67.93;101653.81;4988509;28;20057;-88
2021/06/04 10:26:20;;;;;;;33.08;25.67;;;;;;;23.59;64.63;101649.88;4971404;28;20117;-89
2021/06/04 10:28:49;;;;;;;42.05;29.23;;;;;;;23.69;69.38;101646.56;5000474;28;20404;-88
2021/06/04 10:31:17;;;;;;;30.13;22.67;;;;;;;23.97;66.98;101651.50;4983919;28;20108;-87
2021/06/04 10:33:48;;;;;;;30.52;22.38;;;;;;;24.21;69.12;101648.81;4985360;28;20133;-86
2021/06/04 10:36:22;;;;;;;28.67;23.30;;;;;;;24.13;66.10;101652.72;5002249;28;20041;-89
2021/06/04 10:38:55;;;;;;;34.35;25.63;;;;;;;24.07;66.44;101643.53;4984819;28;20105;-85
2021/06/04 10:41:33;;;;;;;28.52;21.92;;;;;;;24.14;64.85;101648.06;4994031;28;20042;-87
2021/06/04 10:44:21;;;;;;;32.97;25.35;;;;;;;24.24;65.21;101640.13;4981898;28;20061;-89
2021/06/04 10:46:57;;;;;;;27.13;20.45;;;;;;;24.46;63.95;101640.47;4997880;28;20036;-91
2021/06/04 10:49:44;;;;;;;31.38;21.88;;;;;;;24.61;64.99;101637.25;4998977;28;20078;-90
2021/06/04 10:52:29;;;;;;;24.55;19.42;;;;;;;24.53;65.40;101636.50;4976245;28;20054;-89
2021/06/04 10:55:05;;;;;;;26.67;20.98;;;;;;;24.85;63.18;101638.09;4981371;28;20052;-89
2021/06/04 10:57:51;;;;;;;23.42;19.67;;;;;;;24.81;59.82;101637.72;5003145;28;20034;-88
2021/06/04 11:00:44;;;;;;;22.65;17.17;;;;;;;24.46;60.97;101646.78;4968490;28;20042;-90
2021/06/04 11:03:31;;;;;;;26.38;20.98;;;;;;;24.46;62.14;101634.97;4959125;28;20070;-91
2021/06/04 11:06:10;;;;;;;22.00;16.58;;;;;;;24.80;63.91;101638.81;5003067;28;21623;-89
2021/06/04 11:09:15;;;;;;;21.95;16.77;;;;;;;24.99;60.88;101634.00;5010344;28;20042;-90
2021/06/04 11:12:07;;;;;;;23.88;16.20;;;;;;;24.85;59.63;101633.41;4996364;28;20041;-90
2021/06/04 11:15:02;;;;;;;24.25;17.63;;;;;;;24.53;59.62;101630.19;4982893;28;20057;-91
2021/06/04 11:17:36;;;;;;;24.25;17.63;;;;;;;24.56;60.50;101620.66;4963560;28;20121;-90
2021/06/04 11:20:09;;;;;;;19.13;15.40;;;;;;;24.73;59.77;101613.38;4992670;28;20048;-92
2021/06/04 11:22:43;;;;;;;20.88;16.73;;;;;;;24.98;62.05;101616.72;5001753;28;20038;-90